createdAt,value
2019-03-04T00:01:02.362Z,14.80
2019-03-04T00:03:50.096Z,14.70
2019-03-04T00:06:31.570Z,14.70
2019-03-04T00:09:14.209Z,14.70
2019-03-04T00:11:55.411Z,14.80
2019-03-04T00:14:36.705Z,14.80
2019-03-04T00:17:18.394Z,14.70
2019-03-04T00:19:59.206Z,14.80
2019-03-04T00:22:40.251Z,14.80
2019-03-04T00:25:23.536Z,14.80
2019-03-04T00:28:03.522Z,14.80
2019-03-04T00:30:43.006Z,14.80
2019-03-04T00:33:23.274Z,14.70
2019-03-04T00:36:05.606Z,14.70
2019-03-04T00:38:48.257Z,14.70
2019-03-04T00:41:28.551Z,14.70
2019-03-04T00:44:09.977Z,14.70
2019-03-04T00:46:51.609Z,14.70
2019-03-04T00:49:32.167Z,14.70
2019-03-04T00:52:12.087Z,14.70
2019-03-04T00:54:56.960Z,14.60
2019-03-04T00:57:39.314Z,14.60
2019-03-04T01:00:21.247Z,14.70
2019-03-04T01:03:06.740Z,14.60
2019-03-04T01:05:47.078Z,14.60
2019-03-04T01:08:30.211Z,14.60
2019-03-04T01:11:13.186Z,14.70
2019-03-04T01:13:54.995Z,14.80
2019-03-04T01:16:36.223Z,14.70
2019-03-04T01:19:17.745Z,14.70
2019-03-04T01:22:03.894Z,14.70
2019-03-04T01:24:45.206Z,14.60
2019-03-04T01:27:27.491Z,14.60
2019-03-04T01:30:08.670Z,14.70
2019-03-04T01:32:51.407Z,14.60
2019-03-04T01:35:36.631Z,14.70
2019-03-04T01:38:14.866Z,14.60
2019-03-04T01:41:00.750Z,14.70
2019-03-04T01:43:40.023Z,14.70
2019-03-04T01:46:26.475Z,14.60
2019-03-04T01:49:07.901Z,14.70
2019-03-04T01:51:51.280Z,14.80
2019-03-04T01:54:31.794Z,14.70
2019-03-04T01:57:14.013Z,14.60
2019-03-04T01:59:56.468Z,14.60
2019-03-04T02:02:38.717Z,14.60
2019-03-04T02:05:20.367Z,14.60
2019-03-04T02:08:00.329Z,14.70
2019-03-04T02:10:44.357Z,14.70
2019-03-04T02:13:25.427Z,14.70
2019-03-04T02:16:07.122Z,14.60
2019-03-04T02:18:49.467Z,14.60
2019-03-04T02:21:32.099Z,14.60
2019-03-04T02:24:34.187Z,14.60
2019-03-04T02:27:13.669Z,14.60
2019-03-04T02:29:53.576Z,14.60
2019-03-04T02:32:32.717Z,14.60
2019-03-04T02:35:13.076Z,14.60
2019-03-04T02:37:57.467Z,14.60
2019-03-04T02:40:41.455Z,14.60
2019-03-04T02:43:23.424Z,14.60
2019-03-04T02:46:06.324Z,14.60
2019-03-04T02:48:46.635Z,14.60
2019-03-04T02:51:25.844Z,14.70
2019-03-04T02:54:08.783Z,14.70
2019-03-04T02:56:51.905Z,14.70
2019-03-04T02:59:34.687Z,14.70
2019-03-04T03:02:14.600Z,14.80
2019-03-04T03:05:00.476Z,14.90
2019-03-04T03:07:44.123Z,14.90
2019-03-04T03:10:32.419Z,14.90
2019-03-04T03:13:05.493Z,15.00
2019-03-04T03:15:46.083Z,14.90
2019-03-04T03:18:27.851Z,15.10
2019-03-04T03:21:10.361Z,15.30
2019-03-04T03:23:51.586Z,15.40
2019-03-04T03:26:36.897Z,15.30
2019-03-04T03:29:15.002Z,15.40
2019-03-04T03:31:53.582Z,15.30
2019-03-04T03:34:34.903Z,15.40
2019-03-04T03:37:15.273Z,15.40
2019-03-04T03:39:56.765Z,15.40
2019-03-04T03:42:36.513Z,15.40
2019-03-04T03:45:17.504Z,15.40
2019-03-04T03:48:00.149Z,15.50
2019-03-04T03:50:41.864Z,15.60
2019-03-04T03:53:24.778Z,15.50
2019-03-04T03:56:13.639Z,15.70
2019-03-04T03:58:58.190Z,15.60
2019-03-04T04:01:39.084Z,15.70
2019-03-04T04:04:21.560Z,15.90
2019-03-04T04:07:03.493Z,16.00
2019-03-04T04:09:49.979Z,16.00
2019-03-04T04:12:30.949Z,15.90
2019-03-04T04:15:13.071Z,15.80
2019-03-04T04:17:52.832Z,15.80
2019-03-04T04:20:39.458Z,15.80
2019-03-04T04:23:19.575Z,15.80
2019-03-04T04:26:23.482Z,15.90
2019-03-04T04:29:17.588Z,15.90
2019-03-04T04:32:03.360Z,15.90
2019-03-04T04:34:52.199Z,16.10
2019-03-04T04:37:35.210Z,16.20
2019-03-04T04:40:15.491Z,16.30
2019-03-04T04:43:08.479Z,16.30
2019-03-04T04:45:50.579Z,16.20
2019-03-04T04:48:35.635Z,16.10
2019-03-04T04:51:42.251Z,16.10
2019-03-04T04:54:33.022Z,16.10
2019-03-04T04:57:28.334Z,16.10
2019-03-04T05:00:17.955Z,16.20
2019-03-04T05:03:02.906Z,16.30
2019-03-04T05:05:48.621Z,16.20
2019-03-04T05:08:30.761Z,16.30
2019-03-04T05:11:28.176Z,16.30
2019-03-04T05:14:12.268Z,16.30
2019-03-04T05:16:58.635Z,16.40
2019-03-04T05:19:49.981Z,16.50
2019-03-04T05:22:36.946Z,16.50
2019-03-04T05:25:19.821Z,16.40
2019-03-04T05:28:04.927Z,16.30
2019-03-04T05:31:06.558Z,16.40
2019-03-04T05:33:54.945Z,16.50
2019-03-04T05:36:35.319Z,16.50
2019-03-04T05:39:18.155Z,16.50
2019-03-04T05:42:07.157Z,16.60
2019-03-04T05:44:53.986Z,16.60
2019-03-04T05:47:49.718Z,16.50
2019-03-04T05:50:34.550Z,16.50
2019-03-04T05:53:28.194Z,16.50
2019-03-04T05:56:11.596Z,16.50
2019-03-04T05:58:53.227Z,16.50
2019-03-04T06:01:42.018Z,16.50
2019-03-04T06:04:27.263Z,16.50
2019-03-04T06:07:22.087Z,16.50
2019-03-04T06:10:02.214Z,16.60
2019-03-04T06:12:52.187Z,16.70
2019-03-04T06:15:40.838Z,16.70
2019-03-04T06:18:26.258Z,16.80
2019-03-04T06:21:10.719Z,16.70
2019-03-04T06:23:52.685Z,16.70
2019-03-04T06:26:40.084Z,16.70
2019-03-04T06:29:31.684Z,16.70
2019-03-04T06:32:23.403Z,16.60
2019-03-04T06:35:17.259Z,16.60
2019-03-04T06:38:01.394Z,16.60
2019-03-04T06:40:52.930Z,16.70
2019-03-04T06:43:37.491Z,16.60
2019-03-04T06:46:19.956Z,16.60
2019-03-04T06:49:09.004Z,16.60
2019-03-04T06:52:00.582Z,16.60
2019-03-04T06:55:06.155Z,16.50
2019-03-04T06:57:52.320Z,16.50
2019-03-04T07:00:52.105Z,16.50
2019-03-04T07:03:46.425Z,16.40
2019-03-04T07:06:28.948Z,16.40
2019-03-04T07:09:24.946Z,16.40
2019-03-04T07:12:06.700Z,16.40
2019-03-04T07:14:53.897Z,16.40
2019-03-04T07:17:35.292Z,16.40
2019-03-04T07:20:30.653Z,16.40
2019-03-04T07:23:21.016Z,16.40
2019-03-04T07:26:00.777Z,16.60
2019-03-04T07:28:45.696Z,16.60
2019-03-04T07:31:29.692Z,16.60
2019-03-04T07:34:11.784Z,16.60
2019-03-04T07:37:01.039Z,16.50
2019-03-04T07:39:43.468Z,16.50
2019-03-04T07:42:26.758Z,16.60
2019-03-04T07:45:16.787Z,16.70
2019-03-04T07:48:11.257Z,16.70
2019-03-04T07:50:52.114Z,16.60
2019-03-04T07:53:45.992Z,16.60
2019-03-04T07:56:19.754Z,16.60
2019-03-04T07:58:59.775Z,16.70
2019-03-04T08:01:42.405Z,16.70
2019-03-04T08:04:28.382Z,16.70
2019-03-04T08:07:45.379Z,16.70
2019-03-04T08:11:03.876Z,16.80
2019-03-04T08:13:46.415Z,16.70
2019-03-04T08:16:24.359Z,16.70
2019-03-04T08:19:08.460Z,16.60
2019-03-04T08:21:52.852Z,16.60
2019-03-04T08:24:42.492Z,16.70
2019-03-04T08:27:32.186Z,16.70
2019-03-04T08:30:12.880Z,16.80
2019-03-04T08:32:52.891Z,16.80
2019-03-04T08:35:38.833Z,16.80
2019-03-04T08:38:22.554Z,16.80
2019-03-04T08:41:06.955Z,16.80
2019-03-04T08:43:49.178Z,16.80
2019-03-04T08:46:28.847Z,16.80
2019-03-04T08:49:17.582Z,16.80
2019-03-04T08:51:57.766Z,16.80
2019-03-04T08:54:39.934Z,16.80
2019-03-04T08:57:18.992Z,16.70
2019-03-04T09:00:00.887Z,16.90
2019-03-04T09:02:41.891Z,16.80
2019-03-04T09:05:29.640Z,16.80
2019-03-04T09:08:12.395Z,16.80
2019-03-04T09:10:57.060Z,16.80
2019-03-04T09:13:38.591Z,16.80
2019-03-04T09:16:17.450Z,16.90
2019-03-04T09:19:00.341Z,17.00
2019-03-04T09:21:45.609Z,17.00
2019-03-04T09:24:26.409Z,17.00
2019-03-04T09:27:08.490Z,17.00
2019-03-04T09:29:48.104Z,17.00
2019-03-04T09:32:29.250Z,17.00
2019-03-04T09:35:17.854Z,16.90
2019-03-04T09:38:08.405Z,16.90
2019-03-04T09:40:49.538Z,16.90
2019-03-04T09:43:34.177Z,16.80
2019-03-04T09:46:16.243Z,16.80
2019-03-04T09:48:57.323Z,16.80
2019-03-04T09:51:37.321Z,16.70
2019-03-04T09:54:17.771Z,16.70
2019-03-04T09:57:01.012Z,16.90
2019-03-04T09:59:46.984Z,16.80
2019-03-04T10:02:40.022Z,16.80
2019-03-04T10:05:42.986Z,16.90
2019-03-04T10:08:34.025Z,16.90
2019-03-04T10:11:54.662Z,16.80
2019-03-04T10:15:09.829Z,16.70
2019-03-04T10:18:07.768Z,16.60
2019-03-04T10:21:25.774Z,16.60
2019-03-04T10:24:41.910Z,16.50
2019-03-04T10:28:12.634Z,16.40
2019-03-04T10:31:21.319Z,16.40
2019-03-04T10:34:18.852Z,16.40
2019-03-04T10:37:31.524Z,16.30
2019-03-04T10:40:29.394Z,16.30
2019-03-04T10:43:59.272Z,16.30
2019-03-04T10:47:03.025Z,16.30
2019-03-04T10:49:46.227Z,16.30
2019-03-04T10:52:29.567Z,16.30
2019-03-04T10:55:16.242Z,16.20
2019-03-04T10:58:00.344Z,16.20
2019-03-04T11:00:44.865Z,16.20
2019-03-04T11:03:30.618Z,16.20
2019-03-04T11:06:14.814Z,16.20
2019-03-04T11:09:02.995Z,16.20
2019-03-04T11:11:58.802Z,16.20
2019-03-04T11:14:44.311Z,16.20
2019-03-04T11:17:28.874Z,16.20
2019-03-04T11:20:17.535Z,16.10
2019-03-04T11:23:00.225Z,16.10
2019-03-04T11:25:44.972Z,16.20
2019-03-04T11:28:49.260Z,16.20
2019-03-04T11:31:36.177Z,16.30
2019-03-04T11:34:20.508Z,16.20
2019-03-04T11:37:03.716Z,16.20
2019-03-04T11:40:27.103Z,16.20
2019-03-04T11:43:18.489Z,16.20
2019-03-04T11:46:19.263Z,16.20
2019-03-04T11:49:23.769Z,16.10
2019-03-04T11:52:08.612Z,16.10
2019-03-04T11:55:05.895Z,16.10
2019-03-04T11:57:53.664Z,16.10
2019-03-04T12:00:53.571Z,16.10
2019-03-04T12:03:35.190Z,16.20
2019-03-04T12:06:21.689Z,16.10
2019-03-04T12:09:13.163Z,16.20
2019-03-04T12:12:06.155Z,16.40
2019-03-04T12:14:55.333Z,16.40
2019-03-04T12:17:52.467Z,16.40
2019-03-04T12:20:43.683Z,16.30
2019-03-04T12:23:39.549Z,16.30
2019-03-04T12:26:30.933Z,16.30
2019-03-04T12:29:50.832Z,16.20
2019-03-04T12:32:53.673Z,16.20
2019-03-04T12:35:43.444Z,16.10
2019-03-04T12:38:33.748Z,16.10
2019-03-04T12:41:46.188Z,16.20
2019-03-04T12:44:38.432Z,16.10
2019-03-04T12:47:47.740Z,16.10
2019-03-04T12:50:50.525Z,16.10
2019-03-04T12:53:44.319Z,16.10
2019-03-04T12:56:54.047Z,16.10
2019-03-04T13:00:26.084Z,16.00
2019-03-04T13:03:24.596Z,16.00
2019-03-04T13:06:24.835Z,16.00
2019-03-04T13:09:52.219Z,16.00
2019-03-04T13:12:52.794Z,16.00
2019-03-04T13:15:59.724Z,16.00
2019-03-04T13:19:29.256Z,16.00
2019-03-04T13:22:35.637Z,15.90
2019-03-04T13:25:43.306Z,16.00
2019-03-04T13:28:57.916Z,16.00
2019-03-04T13:32:20.251Z,16.00
2019-03-04T13:35:24.103Z,16.10
2019-03-04T13:38:02.744Z,16.00
2019-03-04T13:40:58.550Z,16.00
2019-03-04T13:44:17.671Z,16.10
2019-03-04T13:48:07.643Z,16.10
2019-03-04T13:51:40.996Z,16.10
2019-03-04T13:55:19.771Z,16.10
2019-03-04T13:58:47.779Z,16.10
2019-03-04T14:02:11.808Z,16.10
2019-03-04T14:05:25.037Z,16.10
2019-03-04T14:08:33.016Z,16.10
2019-03-04T14:12:03.672Z,16.10
2019-03-04T14:14:54.586Z,16.10
2019-03-04T14:18:16.114Z,16.10
2019-03-04T14:24:50.025Z,16.10
2019-03-04T14:28:19.138Z,16.10
2019-03-04T14:31:50.529Z,16.00
2019-03-04T14:34:58.852Z,16.10
2019-03-04T14:38:25.654Z,16.00
2019-03-04T14:42:05.635Z,16.10
2019-03-04T14:45:15.367Z,16.10
2019-03-04T14:48:50.396Z,16.10
2019-03-04T14:52:23.226Z,16.00
2019-03-04T14:55:43.549Z,16.00
2019-03-04T14:59:10.329Z,16.10
2019-03-04T15:02:13.737Z,16.10
2019-03-04T15:05:28.766Z,16.10
2019-03-04T15:08:42.565Z,16.10
2019-03-04T15:11:51.734Z,16.20
2019-03-04T15:16:33.394Z,16.30
2019-03-04T15:19:46.748Z,16.30
2019-03-04T15:23:13.659Z,16.20
2019-03-04T15:26:24.719Z,16.10
2019-03-04T15:29:38.301Z,16.10
2019-03-04T15:32:57.976Z,16.10
2019-03-04T15:36:26.402Z,16.10
2019-03-04T15:39:43.415Z,16.20
2019-03-04T15:43:03.091Z,16.20
2019-03-04T15:46:20.111Z,16.20
2019-03-04T15:49:22.556Z,16.20
2019-03-04T15:52:41.087Z,16.20
2019-03-04T15:55:41.138Z,16.20
2019-03-04T15:58:58.807Z,16.20
2019-03-04T16:02:01.981Z,16.10
2019-03-04T16:05:02.964Z,16.10
2019-03-04T16:08:44.408Z,16.10
2019-03-04T16:11:39.171Z,16.00
2019-03-04T16:14:57.927Z,16.00
2019-03-04T16:18:27.777Z,16.00
2019-03-04T16:21:32.241Z,16.00
2019-03-04T16:24:40.243Z,16.00
2019-03-04T16:27:44.097Z,16.00
2019-03-04T16:30:40.318Z,16.00
2019-03-04T16:33:48.306Z,16.00
2019-03-04T16:36:43.546Z,16.10
2019-03-04T16:39:42.227Z,16.00
2019-03-04T16:42:40.388Z,16.00
2019-03-04T16:45:36.948Z,15.90
2019-03-04T16:48:31.516Z,16.20
2019-03-04T16:51:19.521Z,16.00
2019-03-04T16:54:29.765Z,15.90
2019-03-04T16:57:27.294Z,15.90
2019-03-04T17:00:35.303Z,15.90
2019-03-04T17:03:31.963Z,15.90
2019-03-04T17:06:19.190Z,15.90
2019-03-04T17:09:07.103Z,15.80
2019-03-04T17:15:02.860Z,15.90
2019-03-04T17:17:46.926Z,15.90
2019-03-04T17:20:27.541Z,16.00
2019-03-04T17:23:14.654Z,15.90
2019-03-04T17:25:59.037Z,15.80
2019-03-04T17:28:41.921Z,15.80
2019-03-04T17:31:23.990Z,15.80
2019-03-04T17:34:03.596Z,15.80
2019-03-04T17:36:43.582Z,15.70
2019-03-04T17:39:26.978Z,15.70
2019-03-04T17:42:14.339Z,15.70
2019-03-04T17:45:02.997Z,15.70
2019-03-04T17:47:43.868Z,15.70
2019-03-04T17:50:49.894Z,16.10
2019-03-04T17:53:48.880Z,16.00
2019-03-04T17:56:35.864Z,15.90
2019-03-04T17:59:24.992Z,15.80
2019-03-04T18:02:10.477Z,15.80
2019-03-04T18:04:52.048Z,15.80
2019-03-04T18:07:37.187Z,15.80
2019-03-04T18:10:27.159Z,15.80
2019-03-04T18:13:10.495Z,15.70
2019-03-04T18:15:53.860Z,15.70
2019-03-04T18:18:34.713Z,15.70
2019-03-04T18:21:17.221Z,15.70
2019-03-04T18:24:05.753Z,15.70
2019-03-04T18:26:52.962Z,15.70
2019-03-04T18:30:13.542Z,16.00
2019-03-04T18:33:25.496Z,15.80
2019-03-04T18:36:38.319Z,15.80
2019-03-04T18:39:59.019Z,15.70
2019-03-04T18:43:12.838Z,15.70
2019-03-04T18:46:05.183Z,15.60
2019-03-04T18:49:10.960Z,15.50
2019-03-04T18:51:53.212Z,15.50
2019-03-04T18:54:34.262Z,15.50
2019-03-04T18:57:15.968Z,15.50
2019-03-04T18:59:59.791Z,15.50
2019-03-04T19:02:42.890Z,15.50
2019-03-04T19:05:27.086Z,15.90
2019-03-04T19:08:09.198Z,15.80
2019-03-04T19:10:49.812Z,15.70
2019-03-04T19:13:31.133Z,15.60
2019-03-04T19:16:16.130Z,15.60
2019-03-04T19:19:00.795Z,15.60
2019-03-04T19:21:41.333Z,15.60
2019-03-04T19:24:22.340Z,15.60
2019-03-04T19:27:10.125Z,15.60
2019-03-04T19:30:05.615Z,15.60
2019-03-04T19:32:45.901Z,15.60
2019-03-04T19:35:25.608Z,15.70
2019-03-04T19:38:08.255Z,15.70
2019-03-04T19:40:49.537Z,15.80
2019-03-04T19:43:32.942Z,15.80
2019-03-04T19:46:11.365Z,15.70
2019-03-04T19:48:49.712Z,15.70
2019-03-04T19:51:33.016Z,15.60
2019-03-04T19:54:16.289Z,15.60
2019-03-04T19:56:56.898Z,15.50
2019-03-04T19:59:40.469Z,15.50
2019-03-04T20:02:22.313Z,15.50
2019-03-04T20:05:02.501Z,15.50
2019-03-04T20:07:44.870Z,15.60
2019-03-04T20:10:22.325Z,15.50
2019-03-04T20:13:01.793Z,15.60
2019-03-04T20:15:39.156Z,15.60
2019-03-04T20:18:22.616Z,15.80
2019-03-04T20:21:06.582Z,15.70
2019-03-04T20:23:45.430Z,15.70
2019-03-04T20:26:28.310Z,15.60
2019-03-04T20:29:08.565Z,15.60
2019-03-04T20:31:50.369Z,15.50
2019-03-04T20:34:33.852Z,15.50
2019-03-04T20:37:13.348Z,15.40
2019-03-04T20:39:57.302Z,15.40
2019-03-04T20:42:36.195Z,15.40
2019-03-04T20:45:19.138Z,15.30
2019-03-04T20:48:01.679Z,15.30
2019-03-04T20:50:42.251Z,15.30
2019-03-04T20:53:25.747Z,15.30
2019-03-04T20:56:06.685Z,15.70
2019-03-04T20:58:52.437Z,15.60
2019-03-04T21:01:34.311Z,15.50
2019-03-04T21:04:13.853Z,15.50
2019-03-04T21:06:57.233Z,15.50
2019-03-04T21:09:37.729Z,15.40
2019-03-04T21:12:20.043Z,15.40
2019-03-04T21:15:02.911Z,15.30
2019-03-04T21:17:46.822Z,15.30
2019-03-04T21:20:26.006Z,15.30
2019-03-04T21:23:09.481Z,15.30
2019-03-04T21:26:01.090Z,15.30
2019-03-04T21:29:16.360Z,15.30
2019-03-04T21:32:02.131Z,15.30
2019-03-04T21:35:26.118Z,15.20
2019-03-04T21:38:10.309Z,15.20
2019-03-04T21:41:16.242Z,15.20
2019-03-04T21:44:34.572Z,15.20
2019-03-04T21:47:44.406Z,15.10
2019-03-04T21:50:26.700Z,15.10
2019-03-04T21:53:09.200Z,15.10
2019-03-04T21:55:55.098Z,15.10
2019-03-04T21:58:39.480Z,15.10
2019-03-04T22:01:28.617Z,15.10
2019-03-04T22:04:06.972Z,15.10
2019-03-04T22:06:46.841Z,15.10
2019-03-04T22:09:31.961Z,15.10
2019-03-04T22:12:18.490Z,15.10
2019-03-04T22:15:01.858Z,15.10
2019-03-04T22:17:41.126Z,15.10
2019-03-04T22:20:21.562Z,15.10
2019-03-04T22:23:02.798Z,15.10
2019-03-04T22:25:41.642Z,15.10
2019-03-04T22:28:21.109Z,15.00
2019-03-04T22:31:04.708Z,15.10
2019-03-04T22:33:46.289Z,15.10
2019-03-04T22:36:27.693Z,15.10
2019-03-04T22:39:10.326Z,15.10
2019-03-04T22:41:49.603Z,15.10
2019-03-04T22:44:38.646Z,15.10
2019-03-04T22:47:20.050Z,15.00
2019-03-04T22:50:02.912Z,15.00
2019-03-04T22:52:50.336Z,15.00
2019-03-04T22:55:30.846Z,15.00
2019-03-04T22:58:09.137Z,15.00
2019-03-04T23:01:37.361Z,15.00
2019-03-04T23:04:36.016Z,15.00
2019-03-04T23:07:39.119Z,15.00
2019-03-04T23:10:36.399Z,14.90
2019-03-04T23:13:41.997Z,14.90
2019-03-04T23:16:24.404Z,15.00
2019-03-04T23:19:05.982Z,15.00
2019-03-04T23:21:49.681Z,15.00
2019-03-04T23:24:32.240Z,15.00
2019-03-04T23:27:32.404Z,15.50
2019-03-04T23:29:59.376Z,15.40
2019-03-04T23:32:41.874Z,15.90
2019-03-04T23:35:18.930Z,15.80
2019-03-04T23:38:00.181Z,15.70
2019-03-04T23:40:44.546Z,15.70
2019-03-04T23:43:22.816Z,15.70
2019-03-04T23:46:05.128Z,15.80
2019-03-04T23:48:47.908Z,15.90
2019-03-04T23:51:29.213Z,15.90
2019-03-04T23:54:09.543Z,15.90
2019-03-04T23:56:49.226Z,15.90
2019-03-04T23:59:33.935Z,15.80
